Time;durP1;ratioP1;P1;durP2;ratioP2;P2;SDS_P1;SDS_P2;PMS_P1;PMS_P2;Temp;Humidity;BMP_temperature;BMP_pressure;BME280_temperature;BME280_humidity;BME280_pressure;Samples;Min_cycle;Max_cycle;Signal;HPM_P1;HPM_P2
2023/04/16 00:00:07;;;;;;;24.58;17.73;;;;;;;8.83;100.00;101003.56;4950170;28;20042;-80
2023/04/16 00:02:34;;;;;;;24.15;18.00;;;;;;;8.86;100.00;101005.31;4967121;28;20054;-79
2023/04/16 00:05:00;;;;;;;21.88;18.17;;;;;;;8.88;100.00;101007.06;4967784;28;20046;-79
2023/04/16 00:07:27;;;;;;;17.52;14.75;;;;;;;8.89;100.00;101006.22;4954049;28;20110;-81
2023/04/16 00:09:54;;;;;;;24.05;18.40;;;;;;;8.89;100.00;101007.94;4960833;28;20070;-80
2023/04/16 00:12:21;;;;;;;23.70;18.17;;;;;;;8.87;100.00;101005.31;4976737;28;20043;-80
2023/04/16 00:14:48;;;;;;;22.75;17.00;;;;;;;8.84;100.00;100996.59;4956174;28;20114;-80
2023/04/16 00:17:14;;;;;;;24.00;17.95;;;;;;;8.80;100.00;100997.47;4980014;28;20061;-80
2023/04/16 00:19:41;;;;;;;26.08;19.58;;;;;;;8.75;100.00;100998.31;5013181;23;20018;-79
2023/04/16 00:22:07;;;;;;;25.65;18.73;;;;;;;8.72;100.00;101002.66;4961691;28;20046;-79
2023/04/16 00:24:34;;;;;;;27.95;18.80;;;;;;;8.71;100.00;101001.78;4980134;28;20050;-80
2023/04/16 00:27:01;;;;;;;24.40;19.63;;;;;;;8.69;100.00;101002.66;4980183;28;20049;-80
2023/04/16 00:29:29;;;;;;;25.85;18.40;;;;;;;8.65;100.00;100998.28;4996424;28;20037;-80
2023/04/16 00:31:56;;;;;;;31.42;20.67;;;;;;;8.65;100.00;101004.38;4965672;28;20042;-80
2023/04/16 00:34:22;;;;;;;25.92;18.98;;;;;;;8.63;100.00;101000.00;4980279;28;20042;-80
2023/04/16 00:36:49;;;;;;;24.38;18.20;;;;;;;8.62;100.00;101001.75;4982402;28;20077;-80
2023/04/16 00:39:16;;;;;;;25.50;18.35;;;;;;;8.59;100.00;100991.28;4997015;28;20042;-79
2023/04/16 00:41:43;;;;;;;34.65;21.33;;;;;;;8.58;100.00;101000.84;4960459;28;20069;-79
2023/04/16 00:44:10;;;;;;;26.52;18.30;;;;;;;8.56;100.00;100999.09;4988715;28;20496;-80
2023/04/16 00:46:37;;;;;;;22.60;17.48;;;;;;;8.51;100.00;101003.44;4967873;28;20066;-79
2023/04/16 00:49:04;;;;;;;31.08;20.55;;;;;;;8.51;100.00;101009.50;4963934;28;20505;-79
2023/04/16 00:51:31;;;;;;;28.75;20.38;;;;;;;8.51;100.00;101012.13;4962689;28;20141;-80
2023/04/16 00:53:58;;;;;;;28.20;19.75;;;;;;;8.52;100.00;101011.25;4946493;28;20490;-80
2023/04/16 00:56:25;;;;;;;20.98;17.92;;;;;;;8.53;100.00;101014.75;4947284;28;20182;-81
2023/04/16 00:58:52;;;;;;;29.77;21.00;;;;;;;8.54;100.00;101019.97;4946710;28;20053;-79
2023/04/16 01:01:18;;;;;;;31.10;22.33;;;;;;;8.55;100.00;101021.72;4945580;28;20146;-79
2023/04/16 01:03:47;;;;;;;33.83;20.92;;;;;;;8.53;100.00;101022.59;4977728;28;20053;-81
2023/04/16 01:06:18;;;;;;;31.08;19.95;;;;;;;8.51;100.00;101025.16;4962895;28;20374;-79
2023/04/16 01:08:46;;;;;;;28.20;18.85;;;;;;;8.51;100.00;101019.06;4962842;28;20157;-80
2023/04/16 01:11:15;;;;;;;31.20;22.23;;;;;;;8.47;100.00;101032.97;4963219;28;20098;-80
2023/04/16 01:13:41;;;;;;;30.98;20.67;;;;;;;8.41;100.00;101039.00;4962792;28;20049;-80
2023/04/16 01:16:12;;;;;;;28.85;21.15;;;;;;;8.36;100.00;101033.75;4962660;28;20031;-81
2023/04/16 01:18:39;;;;;;;25.25;20.30;;;;;;;8.34;100.00;101035.47;4982494;28;20042;-79
2023/04/16 01:21:06;;;;;;;29.17;20.10;;;;;;;8.33;100.00;101046.78;4967117;28;20082;-79
2023/04/16 01:23:33;;;;;;;31.95;21.33;;;;;;;8.31;100.00;101047.63;4956134;28;20043;-80
2023/04/16 01:26:00;;;;;;;27.67;19.40;;;;;;;8.31;100.00;101048.50;4971830;28;20049;-79
2023/04/16 01:28:26;;;;;;;29.88;21.00;;;;;;;8.34;100.00;101047.66;4957162;28;20042;-80
2023/04/16 01:30:53;;;;;;;29.35;21.60;;;;;;;8.33;100.00;101044.19;4972036;28;20043;-80
2023/04/16 01:33:20;;;;;;;27.75;19.15;;;;;;;8.33;100.00;101054.59;4970499;28;20038;-79
2023/04/16 01:35:47;;;;;;;29.98;20.77;;;;;;;8.30;100.00;101049.34;4966124;28;20078;-80
2023/04/16 01:38:13;;;;;;;33.10;21.60;;;;;;;8.28;100.00;101048.50;4963910;28;20058;-80
2023/04/16 01:40:40;;;;;;;30.98;20.08;;;;;;;8.23;100.00;101058.88;4970843;28;20101;-80
2023/04/16 01:43:07;;;;;;;32.85;20.40;;;;;;;8.22;100.00;101061.47;4971612;28;20038;-79
2023/04/16 01:45:36;;;;;;;31.77;20.35;;;;;;;8.21;100.00;101062.34;4955520;28;20386;-81
2023/04/16 01:48:04;;;;;;;33.10;20.85;;;;;;;8.17;100.00;101065.78;4955379;28;20073;-80
2023/04/16 01:50:30;;;;;;;31.63;21.55;;;;;;;8.16;100.00;101064.03;4969052;28;20038;-79
2023/04/16 01:52:57;;;;;;;31.27;21.15;;;;;;;8.14;100.00;101063.16;4964760;28;20043;-80
2023/04/16 01:55:23;;;;;;;33.58;22.20;;;;;;;8.11;100.00;101061.41;4961410;28;20039;-79
2023/04/16 01:57:50;;;;;;;33.38;22.33;;;;;;;8.06;100.00;101063.09;4959540;28;20039;-80
2023/04/16 02:00:18;;;;;;;34.10;21.98;;;;;;;8.05;100.00;101069.16;4960325;28;20113;-80
2023/04/16 02:02:45;;;;;;;35.55;23.42;;;;;;;8.04;100.00;101067.41;4959837;28;20039;-79
2023/04/16 02:05:11;;;;;;;34.22;21.75;;;;;;;8.01;100.00;101067.41;4959058;28;20047;-80
2023/04/16 02:07:38;;;;;;;30.85;20.65;;;;;;;8.01;100.00;101072.63;4963123;28;20106;-79
2023/04/16 02:10:06;;;;;;;31.13;23.30;;;;;;;7.99;100.00;101071.72;4962997;28;20046;-80
2023/04/16 02:12:32;;;;;;;36.55;21.08;;;;;;;7.95;100.00;101074.31;4962863;28;20043;-80
2023/04/16 02:14:59;;;;;;;33.00;22.88;;;;;;;7.94;100.00;101074.31;4964704;28;20053;-79
2023/04/16 02:17:25;;;;;;;36.03;22.95;;;;;;;7.92;100.00;101065.59;4972135;28;20066;-80
2023/04/16 02:19:52;;;;;;;33.28;21.00;;;;;;;7.90;100.00;101064.69;4979325;28;20038;-80
2023/04/16 02:22:18;;;;;;;29.77;20.55;;;;;;;7.86;100.00;101068.13;4979475;28;20066;-80
2023/04/16 02:24:45;;;;;;;31.25;21.80;;;;;;;7.84;100.00;101070.72;4978285;28;20050;-79
2023/04/16 02:27:11;;;;;;;36.15;23.58;;;;;;;7.85;100.00;101076.81;4981646;28;20098;-79
2023/04/16 02:29:38;;;;;;;37.80;21.88;;;;;;;7.82;100.00;101075.03;4965386;28;20038;-80
2023/04/16 02:32:05;;;;;;;36.25;21.70;;;;;;;7.80;100.00;101076.78;4978158;28;20098;-80
2023/04/16 02:34:33;;;;;;;31.38;21.27;;;;;;;7.82;100.00;101074.19;4955978;28;20045;-79
2023/04/16 02:36:59;;;;;;;29.55;20.42;;;;;;;7.80;100.00;101081.13;4975478;28;20053;-79
2023/04/16 02:39:26;;;;;;;31.60;21.40;;;;;;;7.80;100.00;101079.38;4978620;28;20078;-79
2023/04/16 02:41:53;;;;;;;35.97;21.00;;;;;;;7.77;100.00;101077.63;4967408;28;20049;-79
2023/04/16 02:44:19;;;;;;;31.55;21.60;;;;;;;7.74;100.00;101088.03;4969567;28;20070;-79
2023/04/16 02:46:46;;;;;;;32.05;20.65;;;;;;;7.72;100.00;101091.47;4964061;28;20043;-80
2023/04/16 02:49:12;;;;;;;31.65;20.15;;;;;;;7.69;100.00;101086.22;4970980;28;20062;-79
2023/04/16 02:51:39;;;;;;;32.95;21.92;;;;;;;7.66;100.00;101091.41;4962394;28;20045;-79
2023/04/16 02:54:05;;;;;;;31.13;20.98;;;;;;;7.66;100.00;101097.47;4969352;28;20093;-79
2023/04/16 02:56:31;;;;;;;31.92;21.73;;;;;;;7.65;100.00;101102.69;4960662;28;20043;-80
2023/04/16 02:58:58;;;;;;;28.98;19.02;;;;;;;7.59;100.00;101100.91;4977242;28;20043;-80
2023/04/16 03:01:25;;;;;;;34.90;20.88;;;;;;;7.58;100.00;101105.22;4959686;28;20043;-80
2023/04/16 03:03:53;;;;;;;33.80;21.23;;;;;;;7.55;100.00;101110.41;4959546;28;20062;-80
2023/04/16 03:06:20;;;;;;;33.03;20.73;;;;;;;7.53;100.00;101108.63;4959481;28;20060;-80
2023/04/16 03:08:47;;;;;;;31.38;20.75;;;;;;;7.53;100.00;101106.03;4958031;28;20117;-80
2023/04/16 03:11:13;;;;;;;30.48;21.60;;;;;;;7.50;100.00;101121.66;4957974;28;20038;-80
2023/04/16 03:13:40;;;;;;;29.30;20.30;;;;;;;7.45;100.00;101108.56;4958271;28;20035;-80
2023/04/16 03:16:06;;;;;;;31.75;21.27;;;;;;;7.44;100.00;101106.81;4957803;28;20492;-80
2023/04/16 03:18:33;;;;;;;39.20;20.05;;;;;;;7.44;100.00;101110.28;4957961;28;20038;-80
2023/04/16 03:20:59;;;;;;;36.67;21.38;;;;;;;7.43;100.00;101112.84;4961177;23;20080;-80
2023/04/16 03:23:27;;;;;;;31.35;19.58;;;;;;;7.42;100.00;101113.75;4954495;29;20039;-80
2023/04/16 03:25:53;;;;;;;30.67;20.80;;;;;;;7.40;100.00;101118.91;4939407;29;20051;-80
2023/04/16 03:28:20;;;;;;;34.63;22.10;;;;;;;7.41;100.00;101122.41;4954920;29;20046;-80
2023/04/16 03:30:53;;;;;;;38.47;22.95;;;;;;;7.39;100.00;101121.50;4955698;29;20087;-79
2023/04/16 03:33:21;;;;;;;36.10;22.50;;;;;;;7.40;100.00;101120.66;4955055;29;20046;-79
2023/04/16 03:35:57;;;;;;;34.15;22.40;;;;;;;7.39;100.00;101116.28;4971529;28;20050;-80
2023/04/16 03:38:25;;;;;;;36.83;20.65;;;;;;;7.37;100.00;101115.41;4956951;29;20039;-80
2023/04/16 03:40:52;;;;;;;32.65;20.40;;;;;;;7.33;100.00;101116.25;4964904;29;20100;-80
2023/04/16 03:43:18;;;;;;;34.10;21.65;;;;;;;7.32;100.00;101109.28;4955216;29;20486;-80
2023/04/16 03:45:45;;;;;;;30.15;20.73;;;;;;;7.30;100.00;101114.47;4939572;29;20125;-80
2023/04/16 03:48:12;;;;;;;33.85;20.95;;;;;;;7.26;100.00;101113.56;4956550;29;20043;-80
2023/04/16 03:50:39;;;;;;;35.70;24.30;;;;;;;7.25;100.00;101118.75;4955743;29;20102;-80
2023/04/16 03:53:05;;;;;;;32.05;21.05;;;;;;;7.24;100.00;101117.00;4956635;29;20382;-79
2023/04/16 03:55:32;;;;;;;34.53;21.05;;;;;;;7.22;100.00;101116.97;4959958;29;20039;-79
2023/04/16 03:58:01;;;;;;;34.40;21.27;;;;;;;7.25;100.00;101117.00;4973798;28;20031;-79
2023/04/16 04:00:28;;;;;;;32.20;21.10;;;;;;;7.25;100.00;101109.19;4959592;29;20051;-79
2023/04/16 04:02:54;;;;;;;35.90;23.55;;;;;;;7.27;100.00;101115.31;4971356;29;20039;-80
2023/04/16 04:05:21;;;;;;;42.92;22.08;;;;;;;7.25;100.00;101110.94;4970499;29;20094;-79
2023/04/16 04:07:47;;;;;;;36.33;22.73;;;;;;;7.23;100.00;101117.84;4967481;29;20090;-80
2023/04/16 04:10:14;;;;;;;28.25;18.00;;;;;;;7.24;100.00;101122.22;4960914;29;20039;-80
2023/04/16 04:12:40;;;;;;;33.00;19.38;;;;;;;7.23;100.00;101121.31;4956093;29;20071;-80
2023/04/16 04:15:08;;;;;;;32.30;20.42;;;;;;;7.23;100.00;101117.84;4954961;29;20456;-79
2023/04/16 04:17:34;;;;;;;30.17;19.33;;;;;;;7.23;100.00;101125.66;4955068;29;20098;-80
2023/04/16 04:20:01;;;;;;;32.17;21.65;;;;;;;7.24;100.00;101128.28;5011367;23;20077;-80
2023/04/16 04:22:27;;;;;;;36.97;21.80;;;;;;;7.26;100.00;101129.19;4958429;28;20098;-79
2023/04/16 04:24:54;;;;;;;29.27;19.98;;;;;;;7.27;100.00;101136.16;4958381;28;20102;-79
2023/04/16 04:27:20;;;;;;;29.80;18.83;;;;;;;7.31;100.00;101146.59;4974260;28;20043;-79
2023/04/16 04:29:47;;;;;;;30.80;19.38;;;;;;;7.30;100.00;101145.72;4978168;28;20373;-79
2023/04/16 04:32:14;;;;;;;28.48;18.90;;;;;;;7.30;100.00;101140.50;4960924;28;20038;-80
2023/04/16 04:34:40;;;;;;;27.88;17.52;;;;;;;7.33;100.00;101147.50;4976771;28;20046;-79
2023/04/16 04:37:07;;;;;;;31.85;18.75;;;;;;;7.32;100.00;101150.94;4960579;28;20046;-79
2023/04/16 04:39:33;;;;;;;30.35;18.27;;;;;;;7.34;100.00;101146.63;4960824;28;20481;-79
2023/04/16 04:42:01;;;;;;;30.13;18.52;;;;;;;7.35;100.00;101148.38;4960846;28;20100;-79
2023/04/16 04:44:30;;;;;;;26.40;19.20;;;;;;;7.36;100.00;101147.53;4960709;28;20047;-80
2023/04/16 04:46:57;;;;;;;27.77;18.17;;;;;;;7.38;100.00;101151.00;4944600;28;20049;-80
2023/04/16 04:49:24;;;;;;;29.58;19.33;;;;;;;7.35;100.00;101149.22;4960873;28;20462;-80
2023/04/16 04:51:50;;;;;;;32.45;19.95;;;;;;;7.34;100.00;101160.53;4960739;28;20042;-80
2023/04/16 04:54:17;;;;;;;28.77;19.88;;;;;;;7.33;100.00;101161.38;4944578;28;20047;-80
2023/04/16 04:56:44;;;;;;;31.05;19.75;;;;;;;7.37;100.00;101160.56;4976383;28;20513;-80
2023/04/16 04:59:11;;;;;;;28.30;18.38;;;;;;;7.39;100.00;101165.78;4977489;28;20034;-80
2023/04/16 05:05:19;;;;;;;29.90;18.85;;;;;;;7.43;100.00;101168.44;4960791;28;20035;-80
2023/04/16 05:07:45;;;;;;;26.83;18.55;;;;;;;7.45;100.00;101168.47;4968571;28;20046;-79
2023/04/16 05:10:12;;;;;;;28.25;18.45;;;;;;;7.44;100.00;101177.13;4976702;28;20090;-79
2023/04/16 05:12:39;;;;;;;31.50;18.83;;;;;;;7.44;100.00;101174.53;4960523;28;20446;-79
2023/04/16 05:15:06;;;;;;;28.38;18.73;;;;;;;7.46;100.00;101183.25;4943827;28;20085;-79
2023/04/16 05:17:32;;;;;;;27.67;18.33;;;;;;;7.45;100.00;101182.34;4959591;28;20055;-80
2023/04/16 06:02:40;;;;;;;27.92;17.58;;;;;;;7.85;100.00;101210.63;5431001;23;20473;-81
2023/04/16 06:05:07;;;;;;;25.20;17.00;;;;;;;7.88;100.00;101225.44;4943541;28;20043;-78
2023/04/16 06:07:33;;;;;;;24.73;16.85;;;;;;;7.92;100.00;101229.81;4974854;28;20043;-80
2023/04/16 06:10:00;;;;;;;29.45;17.20;;;;;;;7.92;100.00;101219.38;4975049;28;20041;-80
2023/04/16 06:12:26;;;;;;;23.08;16.08;;;;;;;7.97;100.00;101227.28;4958520;28;20058;-80
2023/04/16 06:14:53;;;;;;;23.05;15.55;;;;;;;8.01;100.00;101236.88;4975199;28;20125;-80
2023/04/16 06:17:20;;;;;;;25.98;17.10;;;;;;;8.03;100.00;101230.81;4961494;28;20035;-80
2023/04/16 06:19:47;;;;;;;31.95;18.35;;;;;;;7.99;100.00;101234.25;4974313;28;20040;-80
2023/04/16 06:22:14;;;;;;;26.30;17.63;;;;;;;8.00;100.00;101237.72;4943643;29;20071;-81
2023/04/16 06:24:40;;;;;;;21.15;14.90;;;;;;;8.01;100.00;101234.25;4947872;29;20047;-79
2023/04/16 06:27:07;;;;;;;26.42;16.10;;;;;;;8.09;100.00;101237.81;4949033;29;20070;-80
2023/04/16 06:29:33;;;;;;;25.75;17.10;;;;;;;8.13;100.00;101243.94;4934909;29;20047;-80
2023/04/16 06:32:00;;;;;;;25.70;16.75;;;;;;;8.10;100.00;101248.25;4957196;29;20107;-80
2023/04/16 06:34:28;;;;;;;24.38;16.02;;;;;;;8.12;100.00;101245.66;4957615;29;20102;-80
2023/04/16 06:36:54;;;;;;;28.45;15.57;;;;;;;8.18;100.00;101248.34;4948363;29;20031;-79
2023/04/16 06:39:21;;;;;;;23.90;16.40;;;;;;;8.21;100.00;101251.00;4955029;29;20051;-80
2023/04/16 06:41:48;;;;;;;33.53;17.33;;;;;;;8.28;100.00;101249.34;4953757;29;20047;-80
2023/04/16 06:44:15;;;;;;;23.95;15.95;;;;;;;8.27;100.00;101258.00;4944275;29;20050;-81
2023/04/16 06:46:42;;;;;;;23.67;16.00;;;;;;;8.27;100.00;101252.78;4941741;29;20059;-80
2023/04/16 06:49:08;;;;;;;23.90;15.52;;;;;;;8.28;100.00;101260.63;4925445;29;20425;-80
2023/04/16 06:51:35;;;;;;;23.88;17.40;;;;;;;8.33;100.00;101263.28;4924156;29;20066;-79
2023/04/16 06:54:01;;;;;;;22.75;15.80;;;;;;;8.35;100.00;101258.94;4939541;29;20042;-79
2023/04/16 06:56:28;;;;;;;22.55;16.45;;;;;;;8.38;100.00;101253.78;4939443;29;20360;-80
2023/04/16 06:58:55;;;;;;;23.20;16.10;;;;;;;8.42;100.00;101258.16;4939807;29;20451;-80
2023/04/16 07:01:22;;;;;;;23.77;16.45;;;;;;;8.45;100.00;101262.53;4956050;29;20031;-80
2023/04/16 07:03:49;;;;;;;21.00;15.77;;;;;;;8.49;100.00;101266.94;4939062;29;20509;-81
2023/04/16 07:06:15;;;;;;;24.42;14.85;;;;;;;8.48;100.00;101267.81;4939155;29;20118;-80
2023/04/16 07:08:42;;;;;;;27.25;16.23;;;;;;;8.54;100.00;101270.47;4939151;29;20043;-80
2023/04/16 07:11:09;;;;;;;21.98;16.23;;;;;;;8.57;100.00;101269.63;4939615;29;20110;-81
2023/04/16 07:13:36;;;;;;;24.25;15.90;;;;;;;8.57;100.00;101274.84;4938976;29;20454;-80
2023/04/16 07:16:02;;;;;;;27.35;16.38;;;;;;;8.57;100.00;101278.31;4923041;29;20054;-80
2023/04/16 07:18:28;;;;;;;21.55;15.45;;;;;;;8.61;100.00;101276.63;4956238;29;20098;-80
2023/04/16 07:20:55;;;;;;;21.35;15.55;;;;;;;8.67;100.00;101283.63;4922846;29;20039;-80
2023/04/16 07:23:22;;;;;;;24.88;16.30;;;;;;;8.66;100.00;101285.38;4943254;29;20051;-81
2023/04/16 07:25:48;;;;;;;24.80;16.52;;;;;;;8.64;100.00;101281.00;4956873;29;20054;-80
2023/04/16 07:28:16;;;;;;;22.17;16.17;;;;;;;8.64;100.00;101278.41;4927258;29;20378;-80
2023/04/16 07:30:45;;;;;;;21.73;15.50;;;;;;;8.64;100.00;101288.84;4939782;29;20043;-80
2023/04/16 07:33:11;;;;;;;23.17;15.38;;;;;;;8.63;100.00;101293.19;4938534;29;20043;-80
2023/04/16 07:35:38;;;;;;;25.38;16.50;;;;;;;8.63;100.00;101287.97;4938707;29;20039;-80
2023/04/16 07:38:18;;;;;;;21.38;15.88;;;;;;;8.65;100.00;101294.06;4939152;29;20046;-81
2023/04/16 07:41:07;;;;;;;24.55;15.02;;;;;;;8.72;100.00;101295.88;4941010;29;20051;-81
2023/04/16 07:44:10;;;;;;;18.08;14.98;;;;;;;8.78;100.00;101298.53;4954433;29;20043;-80
2023/04/16 07:50:38;;;;;;;21.05;14.48;;;;;;;8.85;99.29;101312.53;4954297;29;20039;-80
2023/04/16 07:53:07;;;;;;;22.13;15.07;;;;;;;8.87;99.79;101302.09;4938447;29;20461;-80
2023/04/16 07:55:33;;;;;;;21.65;15.50;;;;;;;8.89;99.53;101309.09;4922314;29;20065;-80
2023/04/16 07:58:01;;;;;;;27.17;15.35;;;;;;;8.92;99.41;101310.84;4955359;29;20113;-79
2023/04/16 08:00:28;;;;;;;22.08;15.52;;;;;;;8.95;99.39;101308.25;4938304;29;20119;-81
2023/04/16 08:02:58;;;;;;;28.10;15.65;;;;;;;9.05;99.21;101306.59;4924194;29;20059;-81
2023/04/16 08:05:40;;;;;;;22.00;14.45;;;;;;;9.21;98.95;101323.25;4941698;29;20499;-80
2023/04/16 08:08:07;;;;;;;21.73;15.38;;;;;;;9.32;97.69;101324.22;4926443;29;20047;-80
2023/04/16 08:10:39;;;;;;;20.70;14.15;;;;;;;9.40;97.61;101324.28;4942886;29;20078;-80
2023/04/16 08:13:27;;;;;;;20.35;15.07;;;;;;;9.46;97.04;101329.50;4944440;29;20504;-80
2023/04/16 08:15:53;;;;;;;21.13;14.85;;;;;;;9.51;96.81;101332.16;4942213;29;20046;-80
2023/04/16 08:18:20;;;;;;;20.73;15.45;;;;;;;9.56;95.91;101330.47;4942160;29;20043;-80
2023/04/16 08:33:43;;;;;;;21.00;14.00;;;;;;;9.87;94.13;101336.72;5834882;23;20055;-80
2023/04/16 08:36:14;;;;;;;22.00;14.82;;;;;;;9.89;94.19;101337.59;4962003;28;20363;-80
2023/04/16 08:39:03;;;;;;;20.77;14.23;;;;;;;9.96;93.59;101345.47;4978296;28;20487;-81
2023/04/16 08:41:36;;;;;;;17.30;13.98;;;;;;;10.06;93.52;101347.28;4962118;28;20042;-84
2023/04/16 08:44:08;;;;;;;21.27;14.45;;;;;;;10.19;93.36;101349.06;4982096;28;20073;-84
2023/04/16 08:46:43;;;;;;;20.13;13.65;;;;;;;10.37;92.46;101353.53;4945046;28;20497;-83
2023/04/16 08:49:17;;;;;;;19.30;14.00;;;;;;;10.49;91.46;101357.91;4961668;28;20038;-84
2023/04/16 08:51:51;;;;;;;21.92;14.57;;;;;;;10.52;91.50;101354.44;4961264;28;20117;-83
2023/04/16 08:54:57;;;;;;;18.83;14.70;;;;;;;10.48;90.42;101353.56;4962304;28;20377;-84
2023/04/16 08:57:30;;;;;;;19.42;14.40;;;;;;;10.40;90.76;101365.75;4960855;28;20035;-82
2023/04/16 08:59:58;;;;;;;17.98;14.68;;;;;;;10.30;91.51;101361.31;4944659;28;20094;-84
2023/04/16 09:02:29;;;;;;;19.85;15.07;;;;;;;10.20;91.92;101361.28;4960653;28;20047;-83
2023/04/16 09:04:59;;;;;;;16.80;12.52;;;;;;;10.16;92.50;101363.91;4978451;28;20050;-81
2023/04/16 09:10:15;;;;;;;19.48;15.15;;;;;;;10.04;92.76;101355.13;4902254;29;20056;-79
2023/04/16 09:12:42;;;;;;;21.13;14.48;;;;;;;10.03;92.41;101360.34;4946542;28;20137;-81
2023/04/16 09:15:24;;;;;;;20.67;13.50;;;;;;;10.04;92.83;101357.72;4959400;28;20474;-81
2023/04/16 09:17:51;;;;;;;18.83;13.52;;;;;;;10.14;93.31;101358.63;4961548;28;20049;-81
2023/04/16 09:41:55;;;;;;;20.52;15.00;;;;;;;9.61;96.27;101383.66;5969926;23;20022;-81
2023/04/16 09:44:36;;;;;;;19.92;14.68;;;;;;;9.57;96.94;101393.19;4966156;28;20047;-81
2023/04/16 09:47:09;;;;;;;22.85;15.15;;;;;;;9.54;96.75;101387.06;4959895;28;20050;-81
2023/04/16 09:49:45;;;;;;;22.63;15.45;;;;;;;9.51;97.26;101395.75;4961561;28;20050;-81
2023/04/16 09:52:22;;;;;;;21.20;15.75;;;;;;;9.49;97.24;101394.91;4959552;28;20147;-81
2023/04/16 09:54:52;;;;;;;26.73;18.05;;;;;;;9.48;97.53;101398.38;4959522;28;20045;-80
2023/04/16 09:57:45;;;;;;;22.63;17.17;;;;;;;9.46;98.01;101396.59;4976550;28;20143;-81
2023/04/16 10:04:18;;;;;;;19.85;14.13;;;;;;;9.41;99.01;101401.78;4976335;28;20097;-80
2023/04/16 10:07:06;;;;;;;25.75;17.08;;;;;;;9.42;99.78;101408.75;4958848;28;20134;-80
2023/04/16 10:09:55;;;;;;;24.23;16.27;;;;;;;9.38;100.00;101404.38;4961621;28;20065;-79
2023/04/16 10:12:22;;;;;;;24.73;17.17;;;;;;;9.37;100.00;101398.28;4974682;28;20038;-79
2023/04/16 10:14:49;;;;;;;24.23;17.67;;;;;;;9.38;100.00;101402.63;4942763;28;20414;-81
2023/04/16 10:17:17;;;;;;;25.13;18.70;;;;;;;9.37;100.00;101411.34;4975124;28;20094;-82
2023/04/16 10:19:47;;;;;;;24.55;16.85;;;;;;;9.35;100.00;101414.81;5043577;23;20021;-80
2023/04/16 10:22:14;;;;;;;22.25;15.65;;;;;;;9.33;100.00;101412.16;4958666;28;20046;-81
2023/04/16 10:24:41;;;;;;;23.83;19.20;;;;;;;9.29;100.00;101415.63;4958238;28;20070;-80
2023/04/16 10:27:07;;;;;;;27.17;18.33;;;;;;;9.22;100.00;101412.09;4958162;28;20121;-81
2023/04/16 10:29:35;;;;;;;23.92;17.85;;;;;;;9.19;100.00;101417.28;4942994;28;20375;-81
2023/04/16 10:32:03;;;;;;;25.98;18.92;;;;;;;9.14;100.00;101418.09;4974638;28;20047;-80
2023/04/16 10:34:31;;;;;;;26.27;17.92;;;;;;;9.11;100.00;101424.16;4958997;28;20487;-80
2023/04/16 10:36:58;;;;;;;24.80;18.45;;;;;;;9.12;100.00;101425.91;4958049;28;20478;-80
2023/04/16 10:39:28;;;;;;;25.92;18.80;;;;;;;9.07;100.00;101425.88;4975097;28;20043;-80
2023/04/16 10:42:12;;;;;;;25.85;18.30;;;;;;;9.05;100.00;101429.34;4958831;28;20149;-80
2023/04/16 10:44:40;;;;;;;;;;;;;;;8.96;100.00;101430.13;4958285;28;20042;-80
2023/04/16 10:47:12;;;;;;;25.95;17.63;;;;;;;8.93;100.00;101433.56;4958169;28;19918;-81
2023/04/16 10:49:38;;;;;;;25.85;18.13;;;;;;;8.97;100.00;101426.66;4957671;28;20473;-80
2023/04/16 10:52:12;;;;;;;25.30;19.58;;;;;;;9.02;100.00;101422.34;4974372;28;20060;-80
2023/04/16 10:54:40;;;;;;;27.02;18.45;;;;;;;9.05;100.00;101439.78;4958074;28;20038;-81
2023/04/16 10:57:11;;;;;;;22.85;17.45;;;;;;;9.05;100.00;101430.22;4957688;28;20121;-81
2023/04/16 10:59:39;;;;;;;22.65;17.80;;;;;;;9.04;100.00;101427.59;4958528;28;20468;-80
2023/04/16 11:02:12;;;;;;;29.38;19.13;;;;;;;9.02;100.00;101427.59;4942248;28;20046;-81
2023/04/16 11:04:42;;;;;;;24.25;18.83;;;;;;;9.05;100.00;101430.22;4974296;28;20054;-80
2023/04/16 11:07:12;;;;;;;28.85;19.20;;;;;;;9.10;100.00;101438.09;4941977;28;20141;-81
2023/04/16 11:10:05;;;;;;;27.23;19.45;;;;;;;9.18;100.00;101431.22;4975128;28;20533;-81
2023/04/16 11:12:37;;;;;;;27.73;20.00;;;;;;;9.21;100.00;101432.97;4941308;28;20074;-80
2023/04/16 11:15:10;;;;;;;25.45;19.30;;;;;;;9.13;100.00;101434.66;4962620;28;20085;-81
2023/04/16 11:17:40;;;;;;;28.83;18.63;;;;;;;9.08;100.00;101434.59;4964674;28;20047;-81
2023/04/16 11:20:10;;;;;;;30.85;20.60;;;;;;;9.05;100.00;101434.56;4958923;28;20485;-80
2023/04/16 11:22:37;;;;;;;30.20;19.75;;;;;;;9.05;100.00;101438.03;4942423;28;20089;-81
2023/04/16 11:25:03;;;;;;;33.67;20.50;;;;;;;9.05;100.00;101438.03;4958751;28;20046;-81
2023/04/16 11:27:31;;;;;;;29.60;20.55;;;;;;;9.00;100.00;101439.72;4957752;28;20377;-80
2023/04/16 11:30:07;;;;;;;27.00;19.85;;;;;;;9.04;100.00;101438.91;4958186;28;20051;-81
2023/04/16 11:32:35;;;;;;;31.30;21.60;;;;;;;9.07;100.00;101443.28;4957756;28;20074;-80
2023/04/16 11:35:13;;;;;;;29.35;20.17;;;;;;;9.15;100.00;101441.63;4974837;28;20047;-81
2023/04/16 11:37:39;;;;;;;26.48;20.05;;;;;;;9.24;100.00;101441.72;4960343;28;20042;-80
2023/04/16 11:40:08;;;;;;;29.60;18.27;;;;;;;9.28;100.00;101442.59;4961692;28;20043;-81
2023/04/16 11:42:36;;;;;;;28.83;19.42;;;;;;;9.27;100.00;101446.09;4961064;28;20129;-80
2023/04/16 11:45:13;;;;;;;30.85;20.92;;;;;;;9.31;100.00;101450.50;4962067;28;20485;-81
2023/04/16 11:47:57;;;;;;;27.20;19.60;;;;;;;9.36;100.00;101454.03;4946989;28;20038;-80
2023/04/16 11:50:27;;;;;;;31.90;20.88;;;;;;;9.38;100.00;101456.63;4962197;28;20129;-82
2023/04/16 11:52:57;;;;;;;26.80;20.65;;;;;;;9.42;100.00;101451.44;4948182;28;20049;-79
2023/04/16 11:55:24;;;;;;;26.77;20.23;;;;;;;9.52;100.00;101448.94;4990345;28;20110;-81
2023/04/16 11:57:51;;;;;;;26.85;19.92;;;;;;;9.60;100.00;101450.72;4964619;28;20050;-80
2023/04/16 12:00:18;;;;;;;30.00;21.35;;;;;;;9.66;100.00;101455.13;4962009;28;20137;-80
2023/04/16 12:02:49;;;;;;;28.60;20.60;;;;;;;9.78;100.00;101451.75;4961619;28;20043;-84
2023/04/16 12:05:34;;;;;;;25.83;18.88;;;;;;;9.99;100.00;101455.38;4945180;28;20042;-81
2023/04/16 12:08:09;;;;;;;35.83;21.02;;;;;;;10.22;100.00;101460.72;4976810;28;20441;-81
2023/04/16 12:10:55;;;;;;;25.40;19.08;;;;;;;10.35;100.00;101454.72;4960965;28;20074;-81
2023/04/16 12:13:25;;;;;;;23.83;18.95;;;;;;;10.50;100.00;101453.91;4961233;28;20458;-79
2023/04/16 12:15:55;;;;;;;24.15;17.35;;;;;;;10.62;100.00;101457.47;4960874;28;20061;-80
2023/04/16 12:18:26;;;;;;;25.55;18.80;;;;;;;10.71;100.00;101450.50;4960852;28;20418;-83
2023/04/16 12:35:19;;;;;;;25.30;18.40;;;;;;;10.53;100.00;101458.28;4922728;29;20044;-80
2023/04/16 12:42:04;;;;;;;21.05;14.68;;;;;;;10.38;100.00;101461.72;4922470;29;20035;-80
2023/04/16 12:48:49;;;;;;;21.35;14.63;;;;;;;10.49;100.00;101457.38;4937677;29;20051;-80
2023/04/16 12:51:37;;;;;;;26.17;17.27;;;;;;;10.52;100.00;101454.81;4924191;29;20051;-80
2023/04/16 12:54:27;;;;;;;21.65;16.40;;;;;;;10.59;100.00;101464.41;4924264;29;20463;-80
2023/04/16 12:57:10;;;;;;;23.52;15.82;;;;;;;10.70;100.00;101454.00;4924476;29;20040;-81
2023/04/16 13:00:05;;;;;;;22.08;16.90;;;;;;;10.90;100.00;101461.91;4924657;29;20136;-81
2023/04/16 13:02:51;;;;;;;22.75;16.85;;;;;;;11.08;100.00;101460.19;4925620;29;20609;-80
2023/04/16 13:05:57;;;;;;;22.80;17.38;;;;;;;11.47;100.00;101453.28;4922602;29;20140;-80
2023/04/16 13:12:08;;;;;;;21.95;15.68;;;;;;;12.62;98.56;101448.66;4938541;29;20036;-80
2023/04/16 13:14:54;;;;;;;20.20;16.05;;;;;;;12.95;94.72;101451.13;4924273;29;20055;-80
2023/04/16 13:17:28;;;;;;;21.63;16.45;;;;;;;13.37;93.30;101451.72;4922798;29;20049;-80